sensor_id;sensor_type;location;lat;lon;timestamp;pressure;altitude;pressure_sealevel;temperature;humidity
57024;BME280;42916;54.346;18.562;2022-08-11T00:01:35;101528.88;;;13.10;99.99
57024;BME280;42916;54.346;18.562;2022-08-11T00:04:02;101532.66;;;13.08;100.00
57024;BME280;42916;54.346;18.562;2022-08-11T00:06:31;101533.51;;;13.04;99.91
57024;BME280;42916;54.346;18.562;2022-08-11T00:08:58;101529.92;;;12.98;99.97
57024;BME280;42916;54.346;18.562;2022-08-11T00:11:34;101525.02;;;12.96;100.00
57024;BME280;42916;54.346;18.562;2022-08-11T00:14:02;101524.98;;;12.92;100.00
57024;BME280;42916;54.346;18.562;2022-08-11T00:16:29;101522.94;;;12.90;100.00
57024;BME280;42916;54.346;18.562;2022-08-11T00:18:56;101523.95;;;12.89;100.00
57024;BME280;42916;54.346;18.562;2022-08-11T00:21:24;101518.09;;;12.88;100.00
57024;BME280;42916;54.346;18.562;2022-08-11T00:24:00;101522.08;;;12.88;100.00
57024;BME280;42916;54.346;18.562;2022-08-11T00:26:27;101513.44;;;12.88;100.00
57024;BME280;42916;54.346;18.562;2022-08-11T00:28:54;101510.04;;;12.84;100.00
57024;BME280;42916;54.346;18.562;2022-08-11T00:31:23;101511.19;;;12.81;100.00
57024;BME280;42916;54.346;18.562;2022-08-11T00:33:52;101511.14;;;12.79;100.00
57024;BME280;42916;54.346;18.562;2022-08-11T00:36:19;101512.09;;;12.77;100.00
57024;BME280;42916;54.346;18.562;2022-08-11T00:38:50;101509.67;;;12.77;100.00
57024;BME280;42916;54.346;18.562;2022-08-11T00:44:13;101513.83;;;12.69;100.00
57024;BME280;42916;54.346;18.562;2022-08-11T00:49:34;101509.83;;;12.63;100.00
57024;BME280;42916;54.346;18.562;2022-08-11T01:10:47;101515.34;;;12.58;100.00
57024;BME280;42916;54.346;18.562;2022-08-11T01:25:57;101526.71;;;12.53;100.00
57024;BME280;42916;54.346;18.562;2022-08-11T01:41:30;101532.09;;;12.47;100.00
57024;BME280;42916;54.346;18.562;2022-08-11T01:55:39;101528.29;;;12.34;100.00
57024;BME280;42916;54.346;18.562;2022-08-11T02:00:43;101527.20;;;12.32;100.00
57024;BME280;42916;54.346;18.562;2022-08-11T02:13:49;101527.21;;;12.23;100.00
57024;BME280;42916;54.346;18.562;2022-08-11T02:16:26;101533.66;;;12.21;100.00
57024;BME280;42916;54.346;18.562;2022-08-11T02:18:59;101534.62;;;12.20;100.00
57024;BME280;42916;54.346;18.562;2022-08-11T02:22:00;101538.02;;;12.16;100.00
57024;BME280;42916;54.346;18.562;2022-08-11T02:24:48;101541.77;;;12.13;100.00
57024;BME280;42916;54.346;18.562;2022-08-11T02:27:22;101540.60;;;12.12;100.00
57024;BME280;42916;54.346;18.562;2022-08-11T02:32:23;101533.85;;;12.12;100.00
57024;BME280;42916;54.346;18.562;2022-08-11T02:35:17;101533.91;;;12.10;100.00
57024;BME280;42916;54.346;18.562;2022-08-11T02:38:00;101531.35;;;12.10;100.00
57024;BME280;42916;54.346;18.562;2022-08-11T02:40:37;101534.65;;;12.09;100.00
57024;BME280;42916;54.346;18.562;2022-08-11T02:43:12;101535.58;;;12.06;100.00
57024;BME280;42916;54.346;18.562;2022-08-11T02:45:47;101539.50;;;12.04;100.00
57024;BME280;42916;54.346;18.562;2022-08-11T03:01:11;101537.06;;;11.98;100.00
57024;BME280;42916;54.346;18.562;2022-08-11T03:03:57;101535.20;;;11.96;100.00
57024;BME280;42916;54.346;18.562;2022-08-11T03:14:46;101543.82;;;11.95;100.00
57024;BME280;42916;54.346;18.562;2022-08-11T03:20:10;101543.17;;;11.93;100.00
57024;BME280;42916;54.346;18.562;2022-08-11T03:25:29;101547.39;;;11.92;100.00
57024;BME280;42916;54.346;18.562;2022-08-11T03:30:49;101548.72;;;11.93;100.00
57024;BME280;42916;54.346;18.562;2022-08-11T03:38:43;101550.98;;;11.95;100.00
57024;BME280;42916;54.346;18.562;2022-08-11T03:47:11;101548.27;;;12.01;100.00
57024;BME280;42916;54.346;18.562;2022-08-11T03:52:22;101545.29;;;12.04;100.00
57024;BME280;42916;54.346;18.562;2022-08-11T04:04:52;101547.83;;;12.17;100.00
57024;BME280;42916;54.346;18.562;2022-08-11T04:07:26;101547.40;;;12.20;100.00
57024;BME280;42916;54.346;18.562;2022-08-11T04:21:13;101562.27;;;12.39;100.00
57024;BME280;42916;54.346;18.562;2022-08-11T04:34:42;101558.04;;;12.71;100.00
57024;BME280;42916;54.346;18.562;2022-08-11T05:00:18;101547.77;;;13.93;100.00
57024;BME280;42916;54.346;18.562;2022-08-11T05:03:28;101540.95;;;14.08;100.00
57024;BME280;42916;54.346;18.562;2022-08-11T05:13:43;101531.63;;;14.71;100.00
57024;BME280;42916;54.346;18.562;2022-08-11T05:16:49;101532.05;;;14.88;100.00
57024;BME280;42916;54.346;18.562;2022-08-11T05:19:35;101531.56;;;15.06;100.00
57024;BME280;42916;54.346;18.562;2022-08-11T05:22:20;101527.00;;;15.22;100.00
57024;BME280;42916;54.346;18.562;2022-08-11T05:25:09;101527.81;;;15.38;100.00
57024;BME280;42916;54.346;18.562;2022-08-11T05:28:07;101521.11;;;15.55;100.00
57024;BME280;42916;54.346;18.562;2022-08-11T05:31:07;101526.77;;;15.75;100.00
57024;BME280;42916;54.346;18.562;2022-08-11T05:33:57;101524.02;;;15.95;100.00
57024;BME280;42916;54.346;18.562;2022-08-11T05:36:48;101525.67;;;16.13;100.00
57024;BME280;42916;54.346;18.562;2022-08-11T05:39:22;101526.04;;;16.28;100.00
57024;BME280;42916;54.346;18.562;2022-08-11T05:42:08;101525.47;;;16.45;100.00
57024;BME280;42916;54.346;18.562;2022-08-11T05:44:54;101518.29;;;16.62;100.00
57024;BME280;42916;54.346;18.562;2022-08-11T05:47:41;101517.70;;;16.80;100.00
57024;BME280;42916;54.346;18.562;2022-08-11T05:50:26;101517.84;;;16.97;100.00
57024;BME280;42916;54.346;18.562;2022-08-11T05:53:12;101517.86;;;17.11;100.00
57024;BME280;42916;54.346;18.562;2022-08-11T05:56:02;101521.02;;;17.25;100.00
57024;BME280;42916;54.346;18.562;2022-08-11T05:58:45;101523.67;;;17.39;100.00
57024;BME280;42916;54.346;18.562;2022-08-11T06:01:13;101528.03;;;17.51;100.00
57024;BME280;42916;54.346;18.562;2022-08-11T06:03:48;101529.42;;;17.63;100.00
57024;BME280;42916;54.346;18.562;2022-08-11T06:06:34;101530.78;;;17.74;99.99
57024;BME280;42916;54.346;18.562;2022-08-11T06:09:01;101535.47;;;17.83;99.71
57024;BME280;42916;54.346;18.562;2022-08-11T06:11:28;101538.13;;;17.93;98.86
57024;BME280;42916;54.346;18.562;2022-08-11T06:13:57;101542.63;;;18.01;98.44
57024;BME280;42916;54.346;18.562;2022-08-11T06:16:24;101541.68;;;18.08;97.85
57024;BME280;42916;54.346;18.562;2022-08-11T06:18:53;101542.44;;;18.15;96.96
57024;BME280;42916;54.346;18.562;2022-08-11T06:21:20;101542.75;;;18.23;96.23
57024;BME280;42916;54.346;18.562;2022-08-11T06:23:47;101544.72;;;18.32;95.36
57024;BME280;42916;54.346;18.562;2022-08-11T06:26:14;101545.13;;;18.40;94.93
57024;BME280;42916;54.346;18.562;2022-08-11T06:28:43;101542.02;;;18.49;94.60
57024;BME280;42916;54.346;18.562;2022-08-11T06:31:20;101542.59;;;18.57;94.09
57024;BME280;42916;54.346;18.562;2022-08-11T06:36:20;101541.73;;;18.75;92.70
57024;BME280;42916;54.346;18.562;2022-08-11T06:41:38;101541.25;;;18.92;91.64
57024;BME280;42916;54.346;18.562;2022-08-11T06:49:08;101544.38;;;19.17;89.90
57024;BME280;42916;54.346;18.562;2022-08-11T06:51:59;101548.36;;;19.24;89.13
57024;BME280;42916;54.346;18.562;2022-08-11T06:54:29;101550.54;;;19.28;88.66
57024;BME280;42916;54.346;18.562;2022-08-11T06:56:58;101550.84;;;19.33;88.44
57024;BME280;42916;54.346;18.562;2022-08-11T06:59:44;101551.90;;;19.40;88.05
57024;BME280;42916;54.346;18.562;2022-08-11T07:02:32;101545.44;;;19.47;87.41
57024;BME280;42916;54.346;18.562;2022-08-11T07:05:00;101546.52;;;19.56;86.86
57024;BME280;42916;54.346;18.562;2022-08-11T07:10:52;101550.15;;;19.73;85.60
57024;BME280;42916;54.346;18.562;2022-08-11T07:13:42;101553.02;;;19.82;84.79
57024;BME280;42916;54.346;18.562;2022-08-11T07:16:28;101551.47;;;19.90;83.88
57024;BME280;42916;54.346;18.562;2022-08-11T07:19:02;101555.80;;;19.93;83.10
57024;BME280;42916;54.346;18.562;2022-08-11T07:21:48;101549.80;;;19.94;81.99
57024;BME280;42916;54.346;18.562;2022-08-11T07:24:35;101550.14;;;19.96;81.67
57024;BME280;42916;54.346;18.562;2022-08-11T07:27:21;101552.05;;;19.98;81.28
57024;BME280;42916;54.346;18.562;2022-08-11T07:30:09;101549.31;;;20.02;80.75
57024;BME280;42916;54.346;18.562;2022-08-11T07:32:40;101553.85;;;20.06;80.48
57024;BME280;42916;54.346;18.562;2022-08-11T07:37:40;101553.47;;;20.16;79.36
57024;BME280;42916;54.346;18.562;2022-08-11T07:40:08;101557.28;;;20.16;78.93
57024;BME280;42916;54.346;18.562;2022-08-11T07:42:35;101559.95;;;20.15;78.30
57024;BME280;42916;54.346;18.562;2022-08-11T07:45:06;101558.73;;;20.17;77.90
57024;BME280;42916;54.346;18.562;2022-08-11T07:47:52;101559.31;;;20.23;78.03
57024;BME280;42916;54.346;18.562;2022-08-11T07:50:44;101559.17;;;20.31;77.67
57024;BME280;42916;54.346;18.562;2022-08-11T07:53:30;101560.30;;;20.40;77.31
57024;BME280;42916;54.346;18.562;2022-08-11T07:55:59;101556.91;;;20.50;77.23
57024;BME280;42916;54.346;18.562;2022-08-11T07:58:26;101554.80;;;20.62;77.05
57024;BME280;42916;54.346;18.562;2022-08-11T08:01:17;101554.91;;;20.67;76.71
57024;BME280;42916;54.346;18.562;2022-08-11T08:04:03;101557.43;;;20.65;76.54
57024;BME280;42916;54.346;18.562;2022-08-11T08:06:49;101560.23;;;20.62;76.43
57024;BME280;42916;54.346;18.562;2022-08-11T08:09:35;101566.35;;;20.65;76.48
57024;BME280;42916;54.346;18.562;2022-08-11T08:12:21;101562.59;;;20.74;76.81
57024;BME280;42916;54.346;18.562;2022-08-11T08:15:07;101559.29;;;20.85;76.54
57024;BME280;42916;54.346;18.562;2022-08-11T08:17:53;101557.57;;;20.94;76.35
57024;BME280;42916;54.346;18.562;2022-08-11T08:20:27;101559.33;;;20.99;76.49
57024;BME280;42916;54.346;18.562;2022-08-11T08:22:55;101559.02;;;21.05;76.74
57024;BME280;42916;54.346;18.562;2022-08-11T08:25:24;101557.27;;;21.00;76.63
57024;BME280;42916;54.346;18.562;2022-08-11T08:27:51;101561.45;;;20.89;76.95
57024;BME280;42916;54.346;18.562;2022-08-11T08:30:18;101562.72;;;20.81;77.17
57024;BME280;42916;54.346;18.562;2022-08-11T08:33:04;101560.50;;;20.72;77.28
57024;BME280;42916;54.346;18.562;2022-08-11T08:35:31;101558.69;;;20.66;77.59
57024;BME280;42916;54.346;18.562;2022-08-11T08:37:58;101555.11;;;20.65;77.52
57024;BME280;42916;54.346;18.562;2022-08-11T08:40:26;101551.27;;;20.62;77.37
57024;BME280;42916;54.346;18.562;2022-08-11T08:42:53;101551.05;;;20.60;77.13
57024;BME280;42916;54.346;18.562;2022-08-11T08:45:21;101549.61;;;20.67;76.64
57024;BME280;42916;54.346;18.562;2022-08-11T08:47:58;101539.98;;;20.73;75.45
57024;BME280;42916;54.346;18.562;2022-08-11T08:50:31;101540.40;;;20.82;74.80
57024;BME280;42916;54.346;18.562;2022-08-11T08:53:21;101542.75;;;20.90;75.01
57024;BME280;42916;54.346;18.562;2022-08-11T08:55:49;101542.34;;;20.96;74.75
57024;BME280;42916;54.346;18.562;2022-08-11T08:58:18;101542.06;;;20.99;74.04
57024;BME280;42916;54.346;18.562;2022-08-11T09:00:45;101541.07;;;21.03;73.97
57024;BME280;42916;54.346;18.562;2022-08-11T09:03:15;101539.00;;;21.08;73.34
57024;BME280;42916;54.346;18.562;2022-08-11T09:05:43;101541.40;;;21.15;73.05
57024;BME280;42916;54.346;18.562;2022-08-11T09:08:09;101529.38;;;21.23;72.81
57024;BME280;42916;54.346;18.562;2022-08-11T09:10:36;101532.29;;;21.32;72.48
57024;BME280;42916;54.346;18.562;2022-08-11T09:13:04;101531.17;;;21.40;71.46
57024;BME280;42916;54.346;18.562;2022-08-11T09:15:31;101525.78;;;21.46;70.23
57024;BME280;42916;54.346;18.562;2022-08-11T09:17:59;101522.41;;;21.53;70.08
57024;BME280;42916;54.346;18.562;2022-08-11T09:20:32;101526.09;;;21.61;69.80
57024;BME280;42916;54.346;18.562;2022-08-11T09:23:01;101530.39;;;21.63;67.73
57024;BME280;42916;54.346;18.562;2022-08-11T09:25:48;101528.39;;;21.60;65.81
57024;BME280;42916;54.346;18.562;2022-08-11T09:28:35;101526.54;;;21.61;65.44
57024;BME280;42916;54.346;18.562;2022-08-11T09:31:02;101529.05;;;21.67;65.55
57024;BME280;42916;54.346;18.562;2022-08-11T09:33:28;101525.13;;;21.75;64.06
57024;BME280;42916;54.346;18.562;2022-08-11T09:35:55;101523.71;;;21.84;63.92
57024;BME280;42916;54.346;18.562;2022-08-11T09:38:23;101522.17;;;21.92;63.88
57024;BME280;42916;54.346;18.562;2022-08-11T09:41:09;101523.65;;;22.06;63.47
57024;BME280;42916;54.346;18.562;2022-08-11T09:43:38;101519.14;;;22.15;62.21
57024;BME280;42916;54.346;18.562;2022-08-11T09:46:25;101519.73;;;22.23;60.53
57024;BME280;42916;54.346;18.562;2022-08-11T09:48:54;101514.07;;;22.23;57.73
57024;BME280;42916;54.346;18.562;2022-08-11T09:51:22;101514.36;;;22.29;57.14
57024;BME280;42916;54.346;18.562;2022-08-11T09:53:49;101512.12;;;22.38;57.23
57024;BME280;42916;54.346;18.562;2022-08-11T09:56:17;101507.94;;;22.46;56.64
57024;BME280;42916;54.346;18.562;2022-08-11T09:59:03;101510.22;;;22.58;55.87
57024;BME280;42916;54.346;18.562;2022-08-11T10:01:33;101504.81;;;22.67;55.56
57024;BME280;42916;54.346;18.562;2022-08-11T10:04:05;101508.70;;;22.82;55.42
57024;BME280;42916;54.346;18.562;2022-08-11T10:06:34;101512.39;;;22.88;53.88
57024;BME280;42916;54.346;18.562;2022-08-11T10:09:22;101505.00;;;22.87;52.96
57024;BME280;42916;54.346;18.562;2022-08-11T10:11:49;101505.84;;;22.93;52.55
57024;BME280;42916;54.346;18.562;2022-08-11T10:14:18;101499.06;;;23.01;51.47
57024;BME280;42916;54.346;18.562;2022-08-11T10:17:05;101499.66;;;23.10;50.37
57024;BME280;42916;54.346;18.562;2022-08-11T10:19:32;101494.84;;;23.21;49.39
57024;BME280;42916;54.346;18.562;2022-08-11T10:21:59;101494.71;;;23.34;48.81
57024;BME280;42916;54.346;18.562;2022-08-11T10:24:45;101489.62;;;23.42;46.52
57024;BME280;42916;54.346;18.562;2022-08-11T10:27:31;101492.33;;;23.43;45.57
57024;BME280;42916;54.346;18.562;2022-08-11T10:29:58;101494.13;;;23.42;45.06
57024;BME280;42916;54.346;18.562;2022-08-11T10:32:44;101492.29;;;23.51;45.46
57024;BME280;42916;54.346;18.562;2022-08-11T10:35:31;101492.84;;;23.51;44.57
57024;BME280;42916;54.346;18.562;2022-08-11T10:37:58;101492.67;;;23.51;44.86
57024;BME280;42916;54.346;18.562;2022-08-11T10:40:25;101491.53;;;23.59;45.25
57024;BME280;42916;54.346;18.562;2022-08-11T10:42:53;101488.14;;;23.67;45.36
57024;BME280;42916;54.346;18.562;2022-08-11T10:45:38;101478.39;;;23.64;44.79
57024;BME280;42916;54.346;18.562;2022-08-11T10:48:25;101484.04;;;23.59;44.53
57024;BME280;42916;54.346;18.562;2022-08-11T10:50:53;101482.00;;;23.56;43.93
57024;BME280;42916;54.346;18.562;2022-08-11T10:53:40;101477.20;;;23.61;43.54
57024;BME280;42916;54.346;18.562;2022-08-11T10:56:30;101478.14;;;23.74;43.79
57024;BME280;42916;54.346;18.562;2022-08-11T10:59:16;101476.27;;;23.76;43.31
57024;BME280;42916;54.346;18.562;2022-08-11T11:01:44;101484.44;;;23.80;42.81
57024;BME280;42916;54.346;18.562;2022-08-11T11:04:12;101480.78;;;23.91;42.52
57024;BME280;42916;54.346;18.562;2022-08-11T11:06:53;101482.02;;;23.98;42.61
57024;BME280;42916;54.346;18.562;2022-08-11T11:09:30;101478.52;;;24.06;42.01
57024;BME280;42916;54.346;18.562;2022-08-11T11:12:06;101473.48;;;24.02;41.65
57024;BME280;42916;54.346;18.562;2022-08-11T11:14:52;101472.18;;;24.06;41.49
57024;BME280;42916;54.346;18.562;2022-08-11T11:17:46;101471.38;;;24.07;41.15
57024;BME280;42916;54.346;18.562;2022-08-11T11:20:25;101474.06;;;24.20;41.21
57024;BME280;42916;54.346;18.562;2022-08-11T11:22:53;101474.02;;;24.36;41.34
57024;BME280;42916;54.346;18.562;2022-08-11T11:25:37;101475.02;;;24.53;41.78
57024;BME280;42916;54.346;18.562;2022-08-11T11:28:27;101477.58;;;24.63;41.23
57024;BME280;42916;54.346;18.562;2022-08-11T11:33:31;101469.02;;;24.72;40.79
57024;BME280;42916;54.346;18.562;2022-08-11T11:36:08;101471.80;;;24.82;39.28
57024;BME280;42916;54.346;18.562;2022-08-11T11:38:36;101470.48;;;24.94;39.14
57024;BME280;42916;54.346;18.562;2022-08-11T11:41:03;101469.61;;;25.01;38.69
57024;BME280;42916;54.346;18.562;2022-08-11T11:43:48;101474.14;;;25.23;38.75
57024;BME280;42916;54.346;18.562;2022-08-11T11:46:15;101476.34;;;25.42;37.77
57024;BME280;42916;54.346;18.562;2022-08-11T11:48:42;101472.88;;;25.50;37.52
57024;BME280;42916;54.346;18.562;2022-08-11T11:51:09;101465.44;;;25.46;37.36
57024;BME280;42916;54.346;18.562;2022-08-11T11:53:41;101465.91;;;25.40;36.39
57024;BME280;42916;54.346;18.562;2022-08-11T11:56:08;101466.66;;;25.39;36.62
57024;BME280;42916;54.346;18.562;2022-08-11T11:58:37;101458.98;;;25.63;37.05
57024;BME280;42916;54.346;18.562;2022-08-11T12:01:24;101458.35;;;25.97;36.76
57024;BME280;42916;54.346;18.562;2022-08-11T12:03:51;101458.27;;;25.98;35.10
57024;BME280;42916;54.346;18.562;2022-08-11T12:06:20;101456.90;;;26.08;36.03
57024;BME280;42916;54.346;18.562;2022-08-11T12:08:48;101457.64;;;26.41;35.96
57024;BME280;42916;54.346;18.562;2022-08-11T12:11:15;101456.97;;;26.58;35.73
57024;BME280;42916;54.346;18.562;2022-08-11T12:14:01;101452.66;;;26.58;35.18
57024;BME280;42916;54.346;18.562;2022-08-11T12:16:28;101455.50;;;26.67;35.02
57024;BME280;42916;54.346;18.562;2022-08-11T12:18:57;101453.15;;;26.85;35.24
57024;BME280;42916;54.346;18.562;2022-08-11T12:21:25;101455.63;;;27.00;35.05
57024;BME280;42916;54.346;18.562;2022-08-11T12:23:53;101459.61;;;27.21;35.03
57024;BME280;42916;54.346;18.562;2022-08-11T12:26:38;101458.15;;;27.44;34.92
57024;BME280;42916;54.346;18.562;2022-08-11T12:29:15;101454.78;;;27.79;34.37
57024;BME280;42916;54.346;18.562;2022-08-11T12:31:42;101452.44;;;27.62;33.52
57024;BME280;42916;54.346;18.562;2022-08-11T12:34:10;101453.73;;;27.55;33.81
57024;BME280;42916;54.346;18.562;2022-08-11T12:36:38;101450.48;;;27.77;33.94
57024;BME280;42916;54.346;18.562;2022-08-11T12:39:05;101443.79;;;27.84;33.43
57024;BME280;42916;54.346;18.562;2022-08-11T12:41:33;101451.04;;;28.17;33.82
57024;BME280;42916;54.346;18.562;2022-08-11T12:44:18;101441.54;;;28.58;33.54
57024;BME280;42916;54.346;18.562;2022-08-11T12:47:05;101440.27;;;29.04;33.54
57024;BME280;42916;54.346;18.562;2022-08-11T12:49:31;101439.46;;;29.35;33.28
57024;BME280;42916;54.346;18.562;2022-08-11T12:52:23;101441.52;;;29.46;32.89
57024;BME280;42916;54.346;18.562;2022-08-11T12:55:10;101433.80;;;29.57;33.27
57024;BME280;42916;54.346;18.562;2022-08-11T12:57:38;101429.13;;;29.69;32.43
57024;BME280;42916;54.346;18.562;2022-08-11T13:00:25;101430.45;;;29.45;31.69
57024;BME280;42916;54.346;18.562;2022-08-11T13:03:12;101420.29;;;29.58;31.66
57024;BME280;42916;54.346;18.562;2022-08-11T13:05:59;101422.80;;;29.44;31.49
57024;BME280;42916;54.346;18.562;2022-08-11T13:08:28;101418.11;;;29.57;31.47
57024;BME280;42916;54.346;18.562;2022-08-11T13:10:57;101412.83;;;29.48;31.82
57024;BME280;42916;54.346;18.562;2022-08-11T13:13:44;101417.94;;;29.48;32.25
57024;BME280;42916;54.346;18.562;2022-08-11T13:16:12;101408.55;;;29.88;32.52
57024;BME280;42916;54.346;18.562;2022-08-11T13:18:40;101408.50;;;30.22;31.90
57024;BME280;42916;54.346;18.562;2022-08-11T13:21:11;101405.17;;;30.55;31.89
57024;BME280;42916;54.346;18.562;2022-08-11T13:23:39;101400.95;;;30.65;31.91
57024;BME280;42916;54.346;18.562;2022-08-11T13:26:06;101399.00;;;31.01;32.03
57024;BME280;42916;54.346;18.562;2022-08-11T13:28:37;101395.17;;;31.33;31.57
57024;BME280;42916;54.346;18.562;2022-08-11T13:31:04;101394.52;;;31.54;31.26
57024;BME280;42916;54.346;18.562;2022-08-11T13:33:39;101395.86;;;31.72;31.04
57024;BME280;42916;54.346;18.562;2022-08-11T13:36:06;101395.98;;;31.88;30.65
57024;BME280;42916;54.346;18.562;2022-08-11T13:38:33;101392.18;;;31.93;30.18
57024;BME280;42916;54.346;18.562;2022-08-11T13:41:00;101385.31;;;31.60;29.34
57024;BME280;42916;54.346;18.562;2022-08-11T13:43:27;101385.50;;;31.45;29.45
57024;BME280;42916;54.346;18.562;2022-08-11T13:45:54;101382.52;;;31.52;29.67
57024;BME280;42916;54.346;18.562;2022-08-11T13:48:41;101376.24;;;31.39;29.39
57024;BME280;42916;54.346;18.562;2022-08-11T13:51:09;101374.30;;;31.34;29.95
57024;BME280;42916;54.346;18.562;2022-08-11T13:53:55;101374.09;;;31.22;29.31
57024;BME280;42916;54.346;18.562;2022-08-11T13:56:22;101368.15;;;30.59;28.95
57024;BME280;42916;54.346;18.562;2022-08-11T13:58:49;101364.52;;;30.02;29.65
57024;BME280;42916;54.346;18.562;2022-08-11T14:01:18;101358.33;;;29.81;30.51
57024;BME280;42916;54.346;18.562;2022-08-11T14:03:45;101354.64;;;30.30;31.19
57024;BME280;42916;54.346;18.562;2022-08-11T14:06:12;101357.49;;;30.85;30.93
57024;BME280;42916;54.346;18.562;2022-08-11T14:08:40;101360.99;;;31.17;30.77
57024;BME280;42916;54.346;18.562;2022-08-11T14:11:08;101358.48;;;31.57;30.34
57024;BME280;42916;54.346;18.562;2022-08-11T14:13:54;101357.73;;;31.89;29.66
57024;BME280;42916;54.346;18.562;2022-08-11T14:16:29;101350.83;;;31.65;29.24
57024;BME280;42916;54.346;18.562;2022-08-11T14:18:59;101352.32;;;31.77;29.75
57024;BME280;42916;54.346;18.562;2022-08-11T14:21:26;101350.33;;;32.05;29.45
57024;BME280;42916;54.346;18.562;2022-08-11T14:24:12;101347.11;;;32.05;29.14
57024;BME280;42916;54.346;18.562;2022-08-11T14:26:41;101347.48;;;32.13;28.91
57024;BME280;42916;54.346;18.562;2022-08-11T14:29:14;101339.05;;;31.88;27.96
57024;BME280;42916;54.346;18.562;2022-08-11T14:31:44;101336.35;;;31.41;28.67
57024;BME280;42916;54.346;18.562;2022-08-11T14:34:12;101335.73;;;31.59;29.08
57024;BME280;42916;54.346;18.562;2022-08-11T14:36:43;101336.58;;;31.78;29.09
57024;BME280;42916;54.346;18.562;2022-08-11T14:39:11;101334.66;;;32.01;29.23
57024;BME280;42916;54.346;18.562;2022-08-11T14:41:39;101333.21;;;31.79;28.42
57024;BME280;42916;54.346;18.562;2022-08-11T14:44:25;101335.38;;;31.49;28.78
57024;BME280;42916;54.346;18.562;2022-08-11T14:47:11;101339.75;;;31.42;29.24
57024;BME280;42916;54.346;18.562;2022-08-11T14:49:40;101334.13;;;31.46;29.44
57024;BME280;42916;54.346;18.562;2022-08-11T14:52:09;101339.77;;;31.87;29.40
57024;BME280;42916;54.346;18.562;2022-08-11T14:54:36;101338.52;;;32.16;29.23
57024;BME280;42916;54.346;18.562;2022-08-11T14:57:21;101340.76;;;32.40;29.18
57024;BME280;42916;54.346;18.562;2022-08-11T14:59:49;101335.85;;;32.63;28.79
57024;BME280;42916;54.346;18.562;2022-08-11T15:02:17;101333.08;;;32.42;28.69
57024;BME280;42916;54.346;18.562;2022-08-11T15:05:03;101336.30;;;32.35;28.94
57024;BME280;42916;54.346;18.562;2022-08-11T15:07:31;101338.85;;;32.41;28.67
57024;BME280;42916;54.346;18.562;2022-08-11T15:10:02;101340.93;;;32.06;28.40
57024;BME280;42916;54.346;18.562;2022-08-11T15:12:29;101340.23;;;31.51;28.45
57024;BME280;42916;54.346;18.562;2022-08-11T15:14:56;101342.20;;;31.26;28.73
57024;BME280;42916;54.346;18.562;2022-08-11T15:17:42;101343.20;;;31.28;29.49
57024;BME280;42916;54.346;18.562;2022-08-11T15:20:11;101348.10;;;31.28;29.44
57024;BME280;42916;54.346;18.562;2022-08-11T15:22:57;101346.41;;;31.28;30.02
57024;BME280;42916;54.346;18.562;2022-08-11T15:25:42;101347.88;;;31.25;29.64
57024;BME280;42916;54.346;18.562;2022-08-11T15:28:10;101348.58;;;30.86;29.96
57024;BME280;42916;54.346;18.562;2022-08-11T15:30:57;101348.79;;;30.84;30.61
57024;BME280;42916;54.346;18.562;2022-08-11T15:33:43;101342.02;;;30.88;30.68
57024;BME280;42916;54.346;18.562;2022-08-11T15:36:29;101337.41;;;30.96;30.93
57024;BME280;42916;54.346;18.562;2022-08-11T15:41:43;101338.67;;;31.39;30.82
57024;BME280;42916;54.346;18.562;2022-08-11T15:44:29;101334.77;;;31.59;30.82
57024;BME280;42916;54.346;18.562;2022-08-11T15:47:16;101337.34;;;31.96;30.93
57024;BME280;42916;54.346;18.562;2022-08-11T15:49:44;101335.54;;;31.95;29.98
57024;BME280;42916;54.346;18.562;2022-08-11T15:52:18;101339.59;;;31.96;30.59
57024;BME280;42916;54.346;18.562;2022-08-11T15:54:46;101341.29;;;32.19;30.42
57024;BME280;42916;54.346;18.562;2022-08-11T15:57:14;101340.41;;;32.57;30.45
57024;BME280;42916;54.346;18.562;2022-08-11T16:00:02;101335.16;;;32.88;30.00
57024;BME280;42916;54.346;18.562;2022-08-11T16:02:49;101342.84;;;32.69;29.59
57024;BME280;42916;54.346;18.562;2022-08-11T16:05:22;101343.48;;;32.83;29.64
57024;BME280;42916;54.346;18.562;2022-08-11T16:07:50;101345.08;;;32.90;29.62
57024;BME280;42916;54.346;18.562;2022-08-11T16:10:17;101342.17;;;32.89;29.28
57024;BME280;42916;54.346;18.562;2022-08-11T16:12:59;101339.48;;;32.28;28.82
57024;BME280;42916;54.346;18.562;2022-08-11T16:15:33;101334.43;;;31.50;29.43
57024;BME280;42916;54.346;18.562;2022-08-11T16:18:20;101339.59;;;31.46;29.61
57024;BME280;42916;54.346;18.562;2022-08-11T16:20:49;101335.61;;;31.16;29.79
57024;BME280;42916;54.346;18.562;2022-08-11T16:23:17;101332.75;;;31.13;29.69
57024;BME280;42916;54.346;18.562;2022-08-11T16:25:44;101328.48;;;31.05;29.93
57024;BME280;42916;54.346;18.562;2022-08-11T16:28:11;101325.69;;;31.05;30.18
57024;BME280;42916;54.346;18.562;2022-08-11T16:30:39;101326.61;;;31.44;30.12
57024;BME280;42916;54.346;18.562;2022-08-11T16:33:06;101331.10;;;31.48;29.54
57024;BME280;42916;54.346;18.562;2022-08-11T16:35:35;101328.58;;;31.41;29.51
57024;BME280;42916;54.346;18.562;2022-08-11T16:38:23;101319.48;;;31.41;28.93
57024;BME280;42916;54.346;18.562;2022-08-11T16:41:02;101315.00;;;31.56;29.05
57024;BME280;42916;54.346;18.562;2022-08-11T16:43:31;101319.21;;;31.73;28.84